« Back
NWS Peachtree City, Ga » Text Product » MCN Terminal Aerodrome Forecast


Printer-friendly Version
Current Version              Previous Versions:   1  2  3  4  5  6  7  8  9  

Terminal Aerodrome Forecast

015
FTUS42 KFFC 201100
TAFMCN
TAF
KMCN 201136Z 2012/2112 00000KT P6SM SKC
      TEMPO 2012/2013 5SM BR
     FM201600 15003KT P6SM FEW250
     FM201800 22004KT P6SM FEW040 FEW250
     FM210000 00000KT P6SM SCT100=



USA.gov is the U.S. government's official web portal to all federal, state and local government web resources and services.